createdAt,value
2022-08-09T00:01:10.354Z,5.15
2022-08-09T00:04:34.540Z,4.95
2022-08-09T00:07:44.850Z,5.05
2022-08-09T00:10:46.434Z,5.00
2022-08-09T00:13:47.802Z,4.93
2022-08-09T00:16:49.277Z,5.18
2022-08-09T00:19:51.470Z,5.50
2022-08-09T00:22:52.598Z,4.93
2022-08-09T00:25:54.193Z,5.45
2022-08-09T00:28:57.162Z,4.78
2022-08-09T00:32:01.263Z,4.80
2022-08-09T00:35:04.767Z,4.97
2022-08-09T00:38:05.808Z,5.53
2022-08-09T00:41:08.172Z,5.40
2022-08-09T00:44:20.129Z,4.82
2022-08-09T00:47:28.278Z,5.13
2022-08-09T00:50:38.080Z,5.15
2022-08-09T00:53:40.105Z,5.05
2022-08-09T00:56:41.280Z,5.47
2022-08-09T00:59:46.962Z,4.68
2022-08-09T01:03:40.818Z,5.18
2022-08-09T01:07:01.895Z,5.03
2022-08-09T01:13:58.875Z,5.25
2022-08-09T01:17:24.283Z,5.18
2022-08-09T01:20:59.480Z,5.63
2022-08-09T01:24:40.294Z,5.57
2022-08-09T01:27:51.567Z,5.50
2022-08-09T01:30:58.174Z,5.60
2022-08-09T01:34:04.499Z,5.90
2022-08-09T01:37:15.183Z,5.57
2022-08-09T01:40:28.593Z,6.10
2022-08-09T01:43:41.863Z,5.50
2022-08-09T01:46:53.797Z,5.70
2022-08-09T01:49:58.121Z,6.00
2022-08-09T01:53:02.465Z,5.90
2022-08-09T01:56:23.726Z,5.10
2022-08-09T01:59:25.517Z,5.93
2022-08-09T02:02:38.896Z,5.93
2022-08-09T02:06:04.218Z,6.30
2022-08-09T02:09:10.488Z,5.88
2022-08-09T02:12:21.895Z,6.88
2022-08-09T02:15:25.493Z,5.80
2022-08-09T02:18:42.855Z,6.78
2022-08-09T02:21:55.965Z,6.00
2022-08-09T02:25:01.611Z,6.50
2022-08-09T02:28:17.949Z,6.25
2022-08-09T02:31:27.320Z,6.50
2022-08-09T02:34:40.538Z,6.40
2022-08-09T02:38:00.653Z,6.25
2022-08-09T02:41:10.471Z,6.10
2022-08-09T02:44:29.132Z,6.05
2022-08-09T02:47:58.010Z,5.60
2022-08-09T02:51:02.407Z,5.25
2022-08-09T02:54:09.028Z,5.60
2022-08-09T02:57:13.585Z,5.60
2022-08-09T03:00:25.282Z,5.78
2022-08-09T03:03:37.208Z,5.85
2022-08-09T03:06:53.212Z,5.95
2022-08-09T03:09:59.356Z,6.38
2022-08-09T03:13:03.038Z,5.93
2022-08-09T03:16:10.393Z,6.22
2022-08-09T03:19:14.601Z,5.95
2022-08-09T03:22:42.092Z,7.22
2022-08-09T03:25:58.645Z,6.35
2022-08-09T03:29:09.602Z,6.28
2022-08-09T03:32:17.427Z,6.30
2022-08-09T03:35:24.776Z,6.53
2022-08-09T03:38:44.699Z,7.22
2022-08-09T03:41:48.652Z,7.68
2022-08-09T03:44:50.066Z,6.57
2022-08-09T03:47:51.057Z,6.45
2022-08-09T03:50:57.034Z,6.28
2022-08-09T03:54:00.105Z,6.60
2022-08-09T03:57:18.747Z,6.90
2022-08-09T04:00:21.677Z,6.40
2022-08-09T04:03:45.873Z,6.72
2022-08-09T04:06:49.124Z,7.50
2022-08-09T04:09:53.739Z,6.78
2022-08-09T04:12:55.441Z,6.78
2022-08-09T04:16:20.008Z,6.53
2022-08-09T04:19:30.287Z,6.60
2022-08-09T04:22:41.321Z,6.63
2022-08-09T04:25:49.658Z,6.43
2022-08-09T04:28:57.419Z,6.32
2022-08-09T04:32:00.756Z,5.85
2022-08-09T04:35:01.969Z,6.28
2022-08-09T04:38:03.569Z,6.78
2022-08-09T04:41:05.153Z,6.88
2022-08-09T04:44:14.764Z,6.30
2022-08-09T04:47:15.841Z,5.88
2022-08-09T04:50:19.687Z,6.13
2022-08-09T04:53:25.521Z,6.38
2022-08-09T04:56:27.431Z,5.70
2022-08-09T04:59:30.194Z,5.13
2022-08-09T05:02:31.700Z,5.20
2022-08-09T05:05:52.770Z,5.38
2022-08-09T05:09:00.871Z,5.20
2022-08-09T05:15:11.205Z,4.80
2022-08-09T05:18:42.765Z,5.38
2022-08-09T05:21:46.624Z,5.20
2022-08-09T05:24:53.461Z,5.00
2022-08-09T05:27:58.723Z,4.78
2022-08-09T05:31:09.444Z,4.78
2022-08-09T05:34:17.068Z,5.18
2022-08-09T05:40:19.764Z,4.85
2022-08-09T05:43:23.256Z,5.03
2022-08-09T05:46:24.334Z,4.93
2022-08-09T05:50:05.843Z,5.00
2022-08-09T05:52:53.366Z,4.85
2022-08-09T05:55:55.360Z,5.45
2022-08-09T05:58:59.802Z,4.78
2022-08-09T06:02:00.756Z,4.45
2022-08-09T06:05:03.747Z,5.07
2022-08-09T06:08:08.046Z,4.80
2022-08-09T06:11:16.700Z,4.70
2022-08-09T06:14:19.219Z,5.00
2022-08-09T06:17:20.301Z,4.90
2022-08-09T06:20:21.073Z,4.43
2022-08-09T06:23:22.763Z,4.38
2022-08-09T06:26:45.319Z,4.40
2022-08-09T06:29:47.907Z,4.97
2022-08-09T06:33:41.032Z,4.45
2022-08-09T06:36:20.661Z,4.90
2022-08-09T06:39:48.232Z,4.78
2022-08-09T06:42:53.062Z,5.25
2022-08-09T06:46:06.470Z,4.88
2022-08-09T06:49:08.838Z,4.70
2022-08-09T06:52:11.950Z,4.50
2022-08-09T06:55:15.270Z,5.10
2022-08-09T07:00:47.621Z,4.80
2022-08-09T07:01:54.624Z,4.85
2022-08-09T07:05:01.141Z,4.63
2022-08-09T07:08:02.711Z,4.78
2022-08-09T07:11:06.233Z,5.35
2022-08-09T07:14:08.794Z,5.25
2022-08-09T07:17:09.824Z,5.50
2022-08-09T07:20:11.325Z,5.35
2022-08-09T07:23:18.308Z,5.13
2022-08-09T07:26:20.918Z,5.07
2022-08-09T07:29:24.325Z,4.82
2022-08-09T07:32:33.208Z,5.20
2022-08-09T07:35:53.460Z,5.25
2022-08-09T07:39:01.017Z,5.45
2022-08-09T07:42:03.665Z,4.78
2022-08-09T07:45:14.847Z,4.45
2022-08-09T07:48:30.000Z,5.18
2022-08-09T07:52:04.467Z,4.85
2022-08-09T07:54:53.391Z,4.55
2022-08-09T07:57:54.585Z,4.10
2022-08-09T08:01:06.171Z,4.57
2022-08-09T08:04:10.320Z,4.53
2022-08-09T08:08:05.984Z,4.82
2022-08-09T08:10:34.362Z,4.55
2022-08-09T08:13:42.620Z,4.32
2022-08-09T08:17:07.602Z,4.28
2022-08-09T08:20:12.760Z,4.70
2022-08-09T08:23:16.694Z,4.53
2022-08-09T08:26:18.883Z,4.80
2022-08-09T08:29:28.575Z,4.47
2022-08-09T08:32:52.586Z,4.63
2022-08-09T08:36:00.428Z,4.28
2022-08-09T08:39:05.565Z,3.90
2022-08-09T08:42:08.497Z,3.80
2022-08-09T08:45:13.757Z,3.75
2022-08-09T08:48:16.909Z,4.00
2022-08-09T08:51:23.131Z,3.53
2022-08-09T08:54:29.920Z,4.13
2022-08-09T08:57:35.309Z,4.15
2022-08-09T09:00:36.939Z,3.92
2022-08-09T09:03:42.765Z,3.97
2022-08-09T09:06:48.438Z,3.72
2022-08-09T09:10:01.979Z,3.65
2022-08-09T09:13:09.500Z,3.95
2022-08-09T09:16:10.786Z,3.95
2022-08-09T09:19:37.005Z,4.00
2022-08-09T09:22:57.469Z,3.45
2022-08-09T09:26:11.917Z,3.03
2022-08-09T09:29:17.060Z,4.18
2022-08-09T09:32:34.175Z,4.03
2022-08-09T09:36:01.329Z,3.60
2022-08-09T09:39:11.030Z,3.75
2022-08-09T09:42:26.610Z,3.80
2022-08-09T09:45:29.538Z,3.90
2022-08-09T09:48:32.820Z,4.00
2022-08-09T09:51:38.324Z,3.78
2022-08-09T09:54:48.750Z,4.72
2022-08-09T09:58:00.879Z,4.22
2022-08-09T10:01:36.758Z,4.63
2022-08-09T10:04:39.878Z,4.65
2022-08-09T10:08:10.967Z,4.40
2022-08-09T10:12:00.528Z,4.60
2022-08-09T10:14:47.868Z,4.88
2022-08-09T10:17:56.412Z,5.10
2022-08-09T10:21:09.151Z,4.97
2022-08-09T10:24:16.080Z,5.38
2022-08-09T10:27:34.593Z,5.07
2022-08-09T10:34:11.033Z,4.15
2022-08-09T10:37:24.112Z,4.30
2022-08-09T10:40:35.177Z,4.20
2022-08-09T10:43:46.950Z,4.45
2022-08-09T10:48:19.168Z,5.25
2022-08-09T10:51:06.793Z,5.38
2022-08-09T10:54:12.514Z,5.72
2022-08-09T10:57:14.974Z,4.60
2022-08-09T11:00:51.074Z,4.25
2022-08-09T11:04:20.080Z,4.97
2022-08-09T11:07:56.934Z,4.95
2022-08-09T11:10:57.834Z,4.60
2022-08-09T11:14:35.492Z,4.53
2022-08-09T11:17:41.969Z,5.03
2022-08-09T11:20:50.090Z,4.57
2022-08-09T11:24:04.216Z,4.97
2022-08-09T11:28:03.534Z,4.88
2022-08-09T11:31:02.362Z,4.95
2022-08-09T11:34:16.851Z,4.43
2022-08-09T11:37:40.658Z,4.00
2022-08-09T11:40:42.692Z,5.32
2022-08-09T11:43:49.719Z,4.28
2022-08-09T11:46:57.336Z,4.95
2022-08-09T11:50:55.163Z,5.20
2022-08-09T11:53:59.654Z,5.32
2022-08-09T11:56:55.339Z,4.25
2022-08-09T11:59:57.450Z,4.93
2022-08-09T12:03:40.964Z,4.68
2022-08-09T12:06:26.565Z,5.30
2022-08-09T12:12:52.762Z,5.15
2022-08-09T12:16:18.775Z,5.00
2022-08-09T12:19:32.834Z,4.47
2022-08-09T12:22:35.439Z,6.65
2022-08-09T12:25:38.414Z,5.80
2022-08-09T12:29:13.695Z,5.35
2022-08-09T12:32:16.318Z,5.65
2022-08-09T12:35:21.552Z,5.07
2022-08-09T12:38:29.524Z,4.90
2022-08-09T12:41:40.421Z,4.57
2022-08-09T12:44:46.467Z,4.65
2022-08-09T12:47:53.944Z,3.95
2022-08-09T12:50:56.812Z,4.60
2022-08-09T12:54:04.512Z,5.00
2022-08-09T12:57:07.882Z,4.57
2022-08-09T13:00:19.192Z,4.30
2022-08-09T13:03:53.300Z,4.68
2022-08-09T13:06:54.919Z,3.97
2022-08-09T13:10:05.453Z,3.67
2022-08-09T13:13:09.818Z,5.30
2022-08-09T13:16:17.602Z,5.20
2022-08-09T13:20:07.600Z,4.75
2022-08-09T13:24:05.706Z,5.03
2022-08-09T13:26:42.320Z,4.78
2022-08-09T13:30:03.067Z,5.05
2022-08-09T13:33:52.513Z,5.30
2022-08-09T13:36:45.998Z,4.13
2022-08-09T13:41:46.966Z,5.35
2022-08-09T13:43:09.542Z,4.20
2022-08-09T13:47:16.691Z,4.70
2022-08-09T13:49:37.605Z,4.70
2022-08-09T13:52:42.576Z,4.00
2022-08-09T13:55:44.888Z,4.32
2022-08-09T13:58:49.279Z,3.57
2022-08-09T14:02:01.494Z,3.70
2022-08-09T14:05:04.006Z,4.88
2022-08-09T14:08:06.849Z,4.20
2022-08-09T14:11:16.280Z,4.40
2022-08-09T14:14:26.020Z,4.13
2022-08-09T14:17:32.668Z,4.65
2022-08-09T14:20:50.492Z,7.95
2022-08-09T14:23:56.940Z,9.60
2022-08-09T14:26:58.361Z,7.30
2022-08-09T14:30:34.967Z,7.97
2022-08-09T14:33:20.880Z,5.32
2022-08-09T14:36:22.858Z,5.95
2022-08-09T14:39:45.665Z,4.68
2022-08-09T14:42:47.755Z,4.95
2022-08-09T14:46:56.645Z,6.07
2022-08-09T14:49:10.607Z,6.07
2022-08-09T14:52:11.758Z,4.63
2022-08-09T14:55:20.445Z,3.83
2022-08-09T14:58:22.080Z,4.05
2022-08-09T15:01:23.522Z,3.70
2022-08-09T15:04:24.747Z,4.53
2022-08-09T15:07:25.944Z,4.70
2022-08-09T15:10:33.256Z,4.18
2022-08-09T15:13:55.695Z,4.20
2022-08-09T15:16:55.487Z,4.15
2022-08-09T15:20:02.203Z,4.03
2022-08-09T15:23:55.817Z,5.22
2022-08-09T15:26:30.924Z,4.47
2022-08-09T15:30:57.008Z,4.18
2022-08-09T15:32:54.178Z,4.18
2022-08-09T15:36:01.866Z,4.00
2022-08-09T15:39:03.823Z,4.90
2022-08-09T15:42:05.557Z,4.10
2022-08-09T15:45:10.253Z,3.92
2022-08-09T15:48:28.230Z,4.30
2022-08-09T15:52:03.875Z,4.95
2022-08-09T15:54:51.986Z,4.57
2022-08-09T15:57:53.181Z,4.43
2022-08-09T16:00:54.978Z,4.22
2022-08-09T16:03:57.648Z,4.15
2022-08-09T16:06:59.537Z,4.20
2022-08-09T16:10:06.400Z,4.78
2022-08-09T16:13:21.226Z,3.53
2022-08-09T16:16:34.780Z,4.63
2022-08-09T16:19:49.074Z,3.65
2022-08-09T16:23:01.194Z,4.20
2022-08-09T16:26:03.316Z,4.45
2022-08-09T16:29:12.645Z,4.30
2022-08-09T16:32:33.267Z,4.82
2022-08-09T16:35:56.953Z,4.38
2022-08-09T16:39:00.119Z,4.30
2022-08-09T16:42:04.317Z,4.13
2022-08-09T16:45:07.887Z,3.95
2022-08-09T16:48:41.363Z,4.43
2022-08-09T16:51:30.109Z,4.05
2022-08-09T16:54:34.579Z,4.55
2022-08-09T16:58:08.927Z,3.95
2022-08-09T17:00:58.302Z,4.47
2022-08-09T17:03:59.354Z,4.32
2022-08-09T17:08:40.959Z,4.05
2022-08-09T17:10:22.124Z,4.20
2022-08-09T17:13:23.132Z,4.88
2022-08-09T17:16:23.902Z,4.25
2022-08-09T17:19:24.650Z,4.65
2022-08-09T17:22:35.861Z,4.18
2022-08-09T17:25:40.302Z,4.05
2022-08-09T17:28:41.665Z,4.78
2022-08-09T17:31:47.058Z,3.97
2022-08-09T17:35:04.159Z,4.70
2022-08-09T17:38:13.903Z,4.55
2022-08-09T17:41:38.804Z,4.47
2022-08-09T17:44:49.090Z,4.97
2022-08-09T17:47:55.010Z,4.35
2022-08-09T17:51:01.768Z,4.80
2022-08-09T17:54:11.333Z,4.20
2022-08-09T17:57:20.552Z,4.97
2022-08-09T18:00:46.741Z,3.75
2022-08-09T18:03:49.448Z,3.90
2022-08-09T18:06:55.425Z,3.83
2022-08-09T18:10:05.170Z,3.78
2022-08-09T18:13:45.915Z,3.92
2022-08-09T18:16:30.710Z,4.03
2022-08-09T18:20:53.816Z,4.50
2022-08-09T18:22:53.386Z,4.15
2022-08-09T18:25:57.884Z,4.20
2022-08-09T18:30:34.898Z,4.63
2022-08-09T18:32:20.271Z,4.28
2022-08-09T18:35:59.520Z,4.10
2022-08-09T18:38:42.680Z,4.45
2022-08-09T18:41:53.056Z,4.82
2022-08-09T18:44:54.425Z,4.50
2022-08-09T18:47:55.764Z,4.40
2022-08-09T18:51:00.985Z,4.60
2022-08-09T18:54:12.565Z,4.63
2022-08-09T18:57:22.227Z,4.50
2022-08-09T19:00:26.151Z,4.43
2022-08-09T19:03:28.592Z,4.60
2022-08-09T19:06:29.819Z,5.00
2022-08-09T19:10:13.092Z,4.80
2022-08-09T19:12:53.935Z,4.70
2022-08-09T19:16:01.250Z,4.78
2022-08-09T19:19:02.032Z,4.70
2022-08-09T19:22:23.036Z,4.50
2022-08-09T19:25:42.022Z,4.18
2022-08-09T19:28:48.762Z,4.25
2022-08-09T19:31:51.327Z,4.80
2022-08-09T19:34:54.281Z,4.40
2022-08-09T19:37:59.023Z,4.50
2022-08-09T19:41:02.074Z,4.68
2022-08-09T19:44:03.725Z,4.93
2022-08-09T19:47:06.339Z,4.28
2022-08-09T19:50:50.877Z,4.88
2022-08-09T19:53:29.429Z,5.15
2022-08-09T19:56:42.547Z,5.28
2022-08-09T19:59:59.070Z,5.32
2022-08-09T20:04:12.415Z,5.20
2022-08-09T20:06:32.195Z,4.55
2022-08-09T20:09:43.811Z,4.30
2022-08-09T20:12:46.901Z,4.60
2022-08-09T20:16:32.767Z,4.32
2022-08-09T20:19:48.096Z,5.07
2022-08-09T20:22:37.794Z,4.28
2022-08-09T20:25:51.770Z,4.60
2022-08-09T20:28:54.005Z,4.00
2022-08-09T20:32:31.396Z,5.10
2022-08-09T20:35:16.072Z,4.45
2022-08-09T20:38:23.938Z,4.47
2022-08-09T20:41:37.744Z,4.55
2022-08-09T20:44:38.839Z,4.35
2022-08-09T20:47:48.299Z,4.90
2022-08-09T20:50:54.331Z,4.28
2022-08-09T20:53:58.777Z,3.95
2022-08-09T20:57:05.074Z,4.47
2022-08-09T21:00:20.883Z,4.63
2022-08-09T21:03:39.189Z,4.38
2022-08-09T21:06:53.816Z,4.45
2022-08-09T21:09:58.341Z,4.40
2022-08-09T21:16:21.244Z,4.00
2022-08-09T21:20:18.481Z,4.05
2022-08-09T21:22:52.660Z,3.72
2022-08-09T21:25:59.907Z,4.28
2022-08-09T21:29:00.956Z,4.10
2022-08-09T21:32:02.331Z,3.88
2022-08-09T21:35:08.849Z,4.50
2022-08-09T21:38:10.577Z,3.92
2022-08-09T21:41:17.075Z,3.78
2022-08-09T21:44:32.879Z,4.07
2022-08-09T21:47:37.399Z,4.25
2022-08-09T21:50:46.684Z,4.25
2022-08-09T21:53:55.989Z,3.33
2022-08-09T21:56:58.669Z,4.78
2022-08-09T21:59:59.477Z,4.45
2022-08-09T22:03:19.783Z,3.58
2022-08-09T22:06:26.918Z,4.68
2022-08-09T22:09:28.443Z,4.03
2022-08-09T22:12:31.287Z,4.38
2022-08-09T22:15:34.954Z,4.00
2022-08-09T22:18:53.080Z,4.07
2022-08-09T22:21:55.784Z,3.85
2022-08-09T22:26:06.900Z,4.20
2022-08-09T22:28:29.756Z,3.83
2022-08-09T22:31:35.849Z,4.68
2022-08-09T22:34:40.431Z,3.42
2022-08-09T22:37:42.204Z,3.65
2022-08-09T22:40:49.055Z,4.18
2022-08-09T22:44:01.989Z,3.78
2022-08-09T22:48:16.013Z,3.95
2022-08-09T22:50:26.083Z,3.67
2022-08-09T22:53:33.343Z,3.53
2022-08-09T22:56:50.994Z,3.85
2022-08-09T22:59:59.471Z,4.00
2022-08-09T23:03:00.435Z,4.00
2022-08-09T23:06:02.048Z,3.70
2022-08-09T23:09:06.256Z,3.80
2022-08-09T23:12:07.682Z,3.92
2022-08-09T23:15:09.120Z,3.03
2022-08-09T23:18:10.325Z,3.70
2022-08-09T23:21:13.167Z,3.42
2022-08-09T23:24:14.331Z,3.25
2022-08-09T23:27:15.921Z,3.50
2022-08-09T23:30:16.864Z,3.17
2022-08-09T23:33:17.526Z,3.30
2022-08-09T23:36:18.264Z,3.30
2022-08-09T23:39:19.270Z,3.08
2022-08-09T23:42:20.588Z,3.42
2022-08-09T23:45:36.974Z,3.60
2022-08-09T23:48:39.545Z,3.50
2022-08-09T23:51:40.669Z,3.95
2022-08-09T23:54:44.403Z,3.05
2022-08-09T23:58:01.920Z,3.50
